sensor_id;sensor_type;location;lat;lon;timestamp;P1;durP1;ratioP1;P2;durP2;ratioP2
33644;SDS011;19986;48.190;16.366;2022-08-11T00:01:10;28.35;;;25.77;;
33644;SDS011;19986;48.190;16.366;2022-08-11T00:03:43;25.30;;;24.00;;
33644;SDS011;19986;48.190;16.366;2022-08-11T00:06:12;26.05;;;24.60;;
33644;SDS011;19986;48.190;16.366;2022-08-11T00:08:39;26.75;;;24.70;;
33644;SDS011;19986;48.190;16.366;2022-08-11T00:11:08;26.23;;;24.67;;
33644;SDS011;19986;48.190;16.366;2022-08-11T00:13:41;26.45;;;24.90;;
33644;SDS011;19986;48.190;16.366;2022-08-11T00:16:16;26.63;;;25.13;;
33644;SDS011;19986;48.190;16.366;2022-08-11T00:18:43;26.95;;;25.38;;
33644;SDS011;19986;48.190;16.366;2022-08-11T00:21:16;25.27;;;23.85;;
33644;SDS011;19986;48.190;16.366;2022-08-11T00:23:46;24.75;;;23.23;;
33644;SDS011;19986;48.190;16.366;2022-08-11T00:26:23;26.90;;;25.23;;
33644;SDS011;19986;48.190;16.366;2022-08-11T00:28:50;26.15;;;24.67;;
33644;SDS011;19986;48.190;16.366;2022-08-11T00:31:25;26.10;;;24.50;;
33644;SDS011;19986;48.190;16.366;2022-08-11T00:33:54;27.60;;;25.88;;
33644;SDS011;19986;48.190;16.366;2022-08-11T00:36:25;25.35;;;23.95;;
33644;SDS011;19986;48.190;16.366;2022-08-11T00:39:13;26.60;;;25.05;;
33644;SDS011;19986;48.190;16.366;2022-08-11T00:41:46;26.70;;;25.17;;
33644;SDS011;19986;48.190;16.366;2022-08-11T00:44:37;28.42;;;26.70;;
33644;SDS011;19986;48.190;16.366;2022-08-11T00:47:17;26.42;;;24.92;;
33644;SDS011;19986;48.190;16.366;2022-08-11T00:49:57;26.15;;;24.73;;
33644;SDS011;19986;48.190;16.366;2022-08-11T01:09:23;26.20;;;24.70;;
33644;SDS011;19986;48.190;16.366;2022-08-11T01:45:56;27.92;;;26.15;;
33644;SDS011;19986;48.190;16.366;2022-08-11T01:51:18;27.00;;;25.60;;
33644;SDS011;19986;48.190;16.366;2022-08-11T01:54:18;27.05;;;25.65;;
33644;SDS011;19986;48.190;16.366;2022-08-11T01:59:40;27.30;;;25.80;;
33644;SDS011;19986;48.190;16.366;2022-08-11T02:08:56;26.33;;;24.75;;
33644;SDS011;19986;48.190;16.366;2022-08-11T02:11:44;28.58;;;26.73;;
33644;SDS011;19986;48.190;16.366;2022-08-11T02:14:26;26.42;;;24.92;;
33644;SDS011;19986;48.190;16.366;2022-08-11T02:22:30;26.65;;;24.90;;
33644;SDS011;19986;48.190;16.366;2022-08-11T02:25:36;26.90;;;25.45;;
33644;SDS011;19986;48.190;16.366;2022-08-11T02:28:16;27.25;;;25.85;;
33644;SDS011;19986;48.190;16.366;2022-08-11T02:33:55;27.15;;;25.35;;
33644;SDS011;19986;48.190;16.366;2022-08-11T02:37:09;28.27;;;26.77;;
33644;SDS011;19986;48.190;16.366;2022-08-11T02:50:39;28.38;;;26.63;;
33644;SDS011;19986;48.190;16.366;2022-08-11T02:53:21;27.65;;;26.08;;
33644;SDS011;19986;48.190;16.366;2022-08-11T02:56:31;26.98;;;25.48;;
33644;SDS011;19986;48.190;16.366;2022-08-11T03:08:02;27.23;;;25.73;;
33644;SDS011;19986;48.190;16.366;2022-08-11T03:10:59;29.67;;;27.98;;
33644;SDS011;19986;48.190;16.366;2022-08-11T03:13:58;27.60;;;26.00;;
33644;SDS011;19986;48.190;16.366;2022-08-11T03:25:30;31.17;;;28.95;;
33644;SDS011;19986;48.190;16.366;2022-08-11T03:31:05;26.80;;;25.25;;
33644;SDS011;19986;48.190;16.366;2022-08-11T03:34:12;29.25;;;27.65;;
33644;SDS011;19986;48.190;16.366;2022-08-11T03:45:32;29.20;;;27.60;;
33644;SDS011;19986;48.190;16.366;2022-08-11T03:48:09;28.77;;;27.17;;
33644;SDS011;19986;48.190;16.366;2022-08-11T03:50:46;26.92;;;25.33;;
33644;SDS011;19986;48.190;16.366;2022-08-11T03:53:22;28.10;;;26.45;;
33644;SDS011;19986;48.190;16.366;2022-08-11T04:25:16;28.58;;;26.75;;
33644;SDS011;19986;48.190;16.366;2022-08-11T04:58:51;28.63;;;26.58;;
33644;SDS011;19986;48.190;16.366;2022-08-11T05:10:31;27.05;;;25.45;;
33644;SDS011;19986;48.190;16.366;2022-08-11T05:13:24;28.23;;;26.27;;
33644;SDS011;19986;48.190;16.366;2022-08-11T05:16:28;29.80;;;27.60;;
33644;SDS011;19986;48.190;16.366;2022-08-11T05:19:17;28.50;;;26.95;;
33644;SDS011;19986;48.190;16.366;2022-08-11T05:22:04;27.05;;;25.55;;
33644;SDS011;19986;48.190;16.366;2022-08-11T05:24:55;28.10;;;26.33;;
33644;SDS011;19986;48.190;16.366;2022-08-11T05:30:52;27.08;;;25.48;;
33644;SDS011;19986;48.190;16.366;2022-08-11T05:36:53;25.93;;;24.50;;
33644;SDS011;19986;48.190;16.366;2022-08-11T05:39:25;27.60;;;25.90;;
33644;SDS011;19986;48.190;16.366;2022-08-11T05:42:13;27.08;;;25.33;;
33644;SDS011;19986;48.190;16.366;2022-08-11T05:45:08;28.85;;;26.95;;
33644;SDS011;19986;48.190;16.366;2022-08-11T05:47:56;26.60;;;24.88;;
33644;SDS011;19986;48.190;16.366;2022-08-11T05:50:48;27.05;;;25.65;;
33644;SDS011;19986;48.190;16.366;2022-08-11T05:53:41;28.00;;;26.02;;
33644;SDS011;19986;48.190;16.366;2022-08-11T05:56:33;27.60;;;26.08;;
33644;SDS011;19986;48.190;16.366;2022-08-11T05:59:04;26.85;;;25.42;;
33644;SDS011;19986;48.190;16.366;2022-08-11T06:01:38;26.15;;;24.48;;
33644;SDS011;19986;48.190;16.366;2022-08-11T06:04:06;28.60;;;27.08;;
33644;SDS011;19986;48.190;16.366;2022-08-11T06:06:45;26.85;;;24.63;;
33644;SDS011;19986;48.190;16.366;2022-08-11T06:09:28;25.75;;;24.23;;
33644;SDS011;19986;48.190;16.366;2022-08-11T06:12:04;27.13;;;25.38;;
33644;SDS011;19986;48.190;16.366;2022-08-11T06:14:33;28.40;;;26.45;;
33644;SDS011;19986;48.190;16.366;2022-08-11T06:17:05;26.40;;;24.80;;
33644;SDS011;19986;48.190;16.366;2022-08-11T06:19:34;27.65;;;26.05;;
33644;SDS011;19986;48.190;16.366;2022-08-11T06:22:03;27.45;;;25.75;;
33644;SDS011;19986;48.190;16.366;2022-08-11T06:24:30;27.70;;;26.00;;
33644;SDS011;19986;48.190;16.366;2022-08-11T06:26:59;25.48;;;24.08;;
33644;SDS011;19986;48.190;16.366;2022-08-11T06:29:25;28.02;;;26.48;;
33644;SDS011;19986;48.190;16.366;2022-08-11T06:31:55;26.23;;;24.35;;
33644;SDS011;19986;48.190;16.366;2022-08-11T06:48:23;27.88;;;26.30;;
33644;SDS011;19986;48.190;16.366;2022-08-11T06:51:10;27.63;;;26.10;;
33644;SDS011;19986;48.190;16.366;2022-08-11T06:53:46;26.95;;;25.35;;
33644;SDS011;19986;48.190;16.366;2022-08-11T06:56:21;27.83;;;26.23;;
33644;SDS011;19986;48.190;16.366;2022-08-11T06:59:08;27.83;;;26.23;;
33644;SDS011;19986;48.190;16.366;2022-08-11T07:02:04;27.15;;;25.35;;
33644;SDS011;19986;48.190;16.366;2022-08-11T07:07:44;27.70;;;25.92;;
33644;SDS011;19986;48.190;16.366;2022-08-11T07:10:45;27.92;;;26.00;;
33644;SDS011;19986;48.190;16.366;2022-08-11T07:13:51;27.15;;;25.00;;
33644;SDS011;19986;48.190;16.366;2022-08-11T07:16:40;27.52;;;25.98;;
33644;SDS011;19986;48.190;16.366;2022-08-11T07:19:08;27.50;;;25.77;;
33644;SDS011;19986;48.190;16.366;2022-08-11T07:21:55;27.58;;;25.75;;
33644;SDS011;19986;48.190;16.366;2022-08-11T07:24:43;27.60;;;26.02;;
33644;SDS011;19986;48.190;16.366;2022-08-11T07:27:42;25.88;;;24.23;;
33644;SDS011;19986;48.190;16.366;2022-08-11T07:30:29;27.45;;;25.98;;
33644;SDS011;19986;48.190;16.366;2022-08-11T07:32:59;26.48;;;25.10;;
33644;SDS011;19986;48.190;16.366;2022-08-11T07:35:32;26.92;;;25.50;;
33644;SDS011;19986;48.190;16.366;2022-08-11T07:38:01;25.40;;;23.90;;
33644;SDS011;19986;48.190;16.366;2022-08-11T07:40:30;26.65;;;25.08;;
33644;SDS011;19986;48.190;16.366;2022-08-11T07:42:58;25.95;;;24.45;;
33644;SDS011;19986;48.190;16.366;2022-08-11T07:45:26;27.58;;;25.85;;
33644;SDS011;19986;48.190;16.366;2022-08-11T07:48:11;26.60;;;24.85;;
33644;SDS011;19986;48.190;16.366;2022-08-11T07:50:57;25.58;;;23.70;;
33644;SDS011;19986;48.190;16.366;2022-08-11T07:53:43;26.52;;;24.65;;
33644;SDS011;19986;48.190;16.366;2022-08-11T07:56:17;26.85;;;25.02;;
33644;SDS011;19986;48.190;16.366;2022-08-11T07:58:44;25.25;;;23.60;;
33644;SDS011;19986;48.190;16.366;2022-08-11T08:01:29;26.42;;;25.02;;
33644;SDS011;19986;48.190;16.366;2022-08-11T08:04:15;26.10;;;24.48;;
33644;SDS011;19986;48.190;16.366;2022-08-11T08:07:04;27.05;;;25.20;;
33644;SDS011;19986;48.190;16.366;2022-08-11T08:09:49;26.73;;;25.20;;
33644;SDS011;19986;48.190;16.366;2022-08-11T08:12:35;25.52;;;23.92;;
33644;SDS011;19986;48.190;16.366;2022-08-11T08:15:20;25.08;;;23.52;;
33644;SDS011;19986;48.190;16.366;2022-08-11T08:18:05;25.92;;;24.25;;
33644;SDS011;19986;48.190;16.366;2022-08-11T08:20:35;25.90;;;24.15;;
33644;SDS011;19986;48.190;16.366;2022-08-11T08:23:03;25.83;;;24.42;;
33644;SDS011;19986;48.190;16.366;2022-08-11T08:25:31;26.30;;;24.45;;
33644;SDS011;19986;48.190;16.366;2022-08-11T08:28:01;25.77;;;24.15;;
33644;SDS011;19986;48.190;16.366;2022-08-11T08:30:32;27.33;;;25.58;;
33644;SDS011;19986;48.190;16.366;2022-08-11T08:35:46;25.98;;;24.27;;
33644;SDS011;19986;48.190;16.366;2022-08-11T08:38:15;26.83;;;25.00;;
33644;SDS011;19986;48.190;16.366;2022-08-11T08:40:42;25.00;;;23.00;;
33644;SDS011;19986;48.190;16.366;2022-08-11T08:43:12;24.63;;;23.08;;
33644;SDS011;19986;48.190;16.366;2022-08-11T08:45:41;27.63;;;25.75;;
33644;SDS011;19986;48.190;16.366;2022-08-11T08:48:13;26.27;;;24.60;;
33644;SDS011;19986;48.190;16.366;2022-08-11T08:50:47;24.50;;;22.85;;
33644;SDS011;19986;48.190;16.366;2022-08-11T08:53:38;25.45;;;23.55;;
33644;SDS011;19986;48.190;16.366;2022-08-11T08:56:08;26.27;;;24.63;;
33644;SDS011;19986;48.190;16.366;2022-08-11T08:58:35;23.77;;;22.33;;
33644;SDS011;19986;48.190;16.366;2022-08-11T09:01:03;25.88;;;24.08;;
33644;SDS011;19986;48.190;16.366;2022-08-11T09:03:30;25.23;;;23.80;;
33644;SDS011;19986;48.190;16.366;2022-08-11T09:06:00;24.83;;;23.52;;
33644;SDS011;19986;48.190;16.366;2022-08-11T09:08:26;24.92;;;23.23;;
33644;SDS011;19986;48.190;16.366;2022-08-11T09:10:54;23.60;;;22.23;;
33644;SDS011;19986;48.190;16.366;2022-08-11T09:13:40;24.95;;;23.40;;
33644;SDS011;19986;48.190;16.366;2022-08-11T09:16:09;24.52;;;23.23;;
33644;SDS011;19986;48.190;16.366;2022-08-11T09:18:36;24.77;;;23.45;;
33644;SDS011;19986;48.190;16.366;2022-08-11T09:21:04;24.08;;;22.80;;
33644;SDS011;19986;48.190;16.366;2022-08-11T09:23:30;24.75;;;23.42;;
33644;SDS011;19986;48.190;16.366;2022-08-11T09:26:15;23.35;;;22.10;;
33644;SDS011;19986;48.190;16.366;2022-08-11T09:29:13;23.73;;;22.20;;
33644;SDS011;19986;48.190;16.366;2022-08-11T09:31:39;24.70;;;23.48;;
33644;SDS011;19986;48.190;16.366;2022-08-11T09:34:09;23.73;;;22.48;;
33644;SDS011;19986;48.190;16.366;2022-08-11T09:36:38;23.80;;;22.50;;
33644;SDS011;19986;48.190;16.366;2022-08-11T09:39:25;23.70;;;22.38;;
33644;SDS011;19986;48.190;16.366;2022-08-11T09:42:15;24.08;;;22.80;;
33644;SDS011;19986;48.190;16.366;2022-08-11T09:44:41;24.40;;;22.95;;
33644;SDS011;19986;48.190;16.366;2022-08-11T09:47:14;23.90;;;22.60;;
33644;SDS011;19986;48.190;16.366;2022-08-11T09:49:47;22.52;;;21.40;;
33644;SDS011;19986;48.190;16.366;2022-08-11T09:52:16;22.50;;;21.05;;
33644;SDS011;19986;48.190;16.366;2022-08-11T09:54:43;22.58;;;21.25;;
33644;SDS011;19986;48.190;16.366;2022-08-11T09:57:13;21.73;;;20.38;;
33644;SDS011;19986;48.190;16.366;2022-08-11T10:00:01;21.25;;;20.05;;
33644;SDS011;19986;48.190;16.366;2022-08-11T10:02:29;21.02;;;19.90;;
33644;SDS011;19986;48.190;16.366;2022-08-11T10:04:56;21.58;;;20.08;;
33644;SDS011;19986;48.190;16.366;2022-08-11T10:07:44;21.75;;;20.38;;
33644;SDS011;19986;48.190;16.366;2022-08-11T10:10:15;20.48;;;19.23;;
33644;SDS011;19986;48.190;16.366;2022-08-11T10:12:57;20.90;;;19.70;;
33644;SDS011;19986;48.190;16.366;2022-08-11T10:15:29;21.38;;;20.27;;
33644;SDS011;19986;48.190;16.366;2022-08-11T10:18:10;22.15;;;20.77;;
33644;SDS011;19986;48.190;16.366;2022-08-11T10:21:28;21.33;;;20.23;;
33644;SDS011;19986;48.190;16.366;2022-08-11T10:23:59;21.90;;;20.50;;
33644;SDS011;19986;48.190;16.366;2022-08-11T10:26:46;21.63;;;20.17;;
33644;SDS011;19986;48.190;16.366;2022-08-11T10:29:16;22.00;;;20.75;;
33644;SDS011;19986;48.190;16.366;2022-08-11T10:32:02;20.48;;;19.48;;
33644;SDS011;19986;48.190;16.366;2022-08-11T10:34:48;22.40;;;21.02;;
33644;SDS011;19986;48.190;16.366;2022-08-11T10:37:16;21.77;;;20.48;;
33644;SDS011;19986;48.190;16.366;2022-08-11T10:39:44;21.70;;;20.33;;
33644;SDS011;19986;48.190;16.366;2022-08-11T10:42:11;22.42;;;21.23;;
33644;SDS011;19986;48.190;16.366;2022-08-11T10:44:57;21.73;;;20.42;;
33644;SDS011;19986;48.190;16.366;2022-08-11T10:47:26;21.60;;;20.17;;
33644;SDS011;19986;48.190;16.366;2022-08-11T10:49:59;22.13;;;20.95;;
33644;SDS011;19986;48.190;16.366;2022-08-11T10:52:47;22.30;;;21.25;;
33644;SDS011;19986;48.190;16.366;2022-08-11T10:55:36;22.48;;;21.05;;
33644;SDS011;19986;48.190;16.366;2022-08-11T10:58:21;21.48;;;20.38;;
33644;SDS011;19986;48.190;16.366;2022-08-11T11:01:07;22.23;;;20.83;;
33644;SDS011;19986;48.190;16.366;2022-08-11T11:03:34;20.25;;;19.25;;
33644;SDS011;19986;48.190;16.366;2022-08-11T11:06:08;20.30;;;19.20;;
33644;SDS011;19986;48.190;16.366;2022-08-11T11:08:40;21.77;;;20.65;;
33644;SDS011;19986;48.190;16.366;2022-08-11T11:11:18;21.63;;;20.33;;
33644;SDS011;19986;48.190;16.366;2022-08-11T11:13:50;22.15;;;20.95;;
33644;SDS011;19986;48.190;16.366;2022-08-11T11:16:36;21.25;;;19.95;;
33644;SDS011;19986;48.190;16.366;2022-08-11T11:19:23;20.67;;;19.33;;
33644;SDS011;19986;48.190;16.366;2022-08-11T11:21:51;19.98;;;18.85;;
33644;SDS011;19986;48.190;16.366;2022-08-11T11:24:52;20.90;;;19.58;;
33644;SDS011;19986;48.190;16.366;2022-08-11T11:30:21;20.23;;;19.13;;
33644;SDS011;19986;48.190;16.366;2022-08-11T11:35:35;21.75;;;20.65;;
33644;SDS011;19986;48.190;16.366;2022-08-11T11:38:12;21.08;;;19.80;;
33644;SDS011;19986;48.190;16.366;2022-08-11T11:40:39;21.00;;;20.00;;
33644;SDS011;19986;48.190;16.366;2022-08-11T11:43:06;21.38;;;19.60;;
33644;SDS011;19986;48.190;16.366;2022-08-11T11:45:32;23.33;;;21.42;;
33644;SDS011;19986;48.190;16.366;2022-08-11T11:47:58;21.08;;;19.77;;
33644;SDS011;19986;48.190;16.366;2022-08-11T11:50:26;21.60;;;19.90;;
33644;SDS011;19986;48.190;16.366;2022-08-11T11:52:55;21.58;;;20.13;;
33644;SDS011;19986;48.190;16.366;2022-08-11T11:55:22;20.92;;;19.92;;
33644;SDS011;19986;48.190;16.366;2022-08-11T11:57:53;21.50;;;20.50;;
33644;SDS011;19986;48.190;16.366;2022-08-11T12:00:38;20.30;;;19.05;;
33644;SDS011;19986;48.190;16.366;2022-08-11T12:03:24;21.10;;;19.90;;
33644;SDS011;19986;48.190;16.366;2022-08-11T12:05:51;22.65;;;21.02;;
33644;SDS011;19986;48.190;16.366;2022-08-11T12:08:18;20.58;;;19.48;;
33644;SDS011;19986;48.190;16.366;2022-08-11T12:10:50;21.70;;;20.10;;
33644;SDS011;19986;48.190;16.366;2022-08-11T12:13:40;21.67;;;20.42;;
33644;SDS011;19986;48.190;16.366;2022-08-11T12:16:09;19.58;;;18.50;;
33644;SDS011;19986;48.190;16.366;2022-08-11T12:18:37;20.05;;;19.05;;
33644;SDS011;19986;48.190;16.366;2022-08-11T12:21:06;20.58;;;19.33;;
33644;SDS011;19986;48.190;16.366;2022-08-11T12:23:34;20.38;;;19.35;;
33644;SDS011;19986;48.190;16.366;2022-08-11T12:26:20;21.05;;;19.75;;
33644;SDS011;19986;48.190;16.366;2022-08-11T12:29:06;21.42;;;20.20;;
33644;SDS011;19986;48.190;16.366;2022-08-11T12:31:36;22.05;;;20.75;;
33644;SDS011;19986;48.190;16.366;2022-08-11T12:34:04;20.77;;;19.67;;
33644;SDS011;19986;48.190;16.366;2022-08-11T12:36:43;19.70;;;18.80;;
33644;SDS011;19986;48.190;16.366;2022-08-11T12:39:15;20.80;;;19.80;;
33644;SDS011;19986;48.190;16.366;2022-08-11T12:41:46;21.10;;;20.10;;
33644;SDS011;19986;48.190;16.366;2022-08-11T12:44:31;21.30;;;20.27;;
33644;SDS011;19986;48.190;16.366;2022-08-11T12:47:18;21.20;;;20.10;;
33644;SDS011;19986;48.190;16.366;2022-08-11T12:49:46;20.98;;;19.60;;
33644;SDS011;19986;48.190;16.366;2022-08-11T12:52:33;26.90;;;25.00;;
33644;SDS011;19986;48.190;16.366;2022-08-11T12:55:12;19.75;;;18.83;;
33644;SDS011;19986;48.190;16.366;2022-08-11T12:58:00;20.48;;;19.25;;
33644;SDS011;19986;48.190;16.366;2022-08-11T13:00:42;19.98;;;18.70;;
33644;SDS011;19986;48.190;16.366;2022-08-11T13:03:28;20.52;;;19.23;;
33644;SDS011;19986;48.190;16.366;2022-08-11T13:06:16;22.02;;;20.65;;
33644;SDS011;19986;48.190;16.366;2022-08-11T13:08:44;20.70;;;19.70;;
33644;SDS011;19986;48.190;16.366;2022-08-11T13:11:10;20.77;;;19.67;;
33644;SDS011;19986;48.190;16.366;2022-08-11T13:13:58;21.55;;;20.25;;
33644;SDS011;19986;48.190;16.366;2022-08-11T13:16:27;21.42;;;20.23;;
33644;SDS011;19986;48.190;16.366;2022-08-11T13:18:55;21.85;;;20.48;;
33644;SDS011;19986;48.190;16.366;2022-08-11T13:21:29;19.38;;;18.42;;
33644;SDS011;19986;48.190;16.366;2022-08-11T13:23:56;22.52;;;20.85;;
33644;SDS011;19986;48.190;16.366;2022-08-11T13:26:22;20.95;;;19.95;;
33644;SDS011;19986;48.190;16.366;2022-08-11T13:28:49;20.88;;;19.75;;
33644;SDS011;19986;48.190;16.366;2022-08-11T13:31:16;21.35;;;19.95;;
33644;SDS011;19986;48.190;16.366;2022-08-11T13:33:48;20.42;;;19.42;;
33644;SDS011;19986;48.190;16.366;2022-08-11T13:36:19;20.73;;;19.52;;
33644;SDS011;19986;48.190;16.366;2022-08-11T13:38:48;21.70;;;20.38;;
33644;SDS011;19986;48.190;16.366;2022-08-11T13:41:16;20.55;;;19.40;;
33644;SDS011;19986;48.190;16.366;2022-08-11T13:44:01;20.45;;;19.23;;
33644;SDS011;19986;48.190;16.366;2022-08-11T13:46:27;21.10;;;19.80;;
33644;SDS011;19986;48.190;16.366;2022-08-11T13:48:54;21.60;;;20.30;;
33644;SDS011;19986;48.190;16.366;2022-08-11T13:51:22;21.85;;;20.60;;
33644;SDS011;19986;48.190;16.366;2022-08-11T13:56:28;21.65;;;20.48;;
33644;SDS011;19986;48.190;16.366;2022-08-11T13:58:56;21.75;;;20.75;;
33644;SDS011;19986;48.190;16.366;2022-08-11T14:01:25;21.95;;;20.85;;
33644;SDS011;19986;48.190;16.366;2022-08-11T14:04:18;22.05;;;20.75;;
33644;SDS011;19986;48.190;16.366;2022-08-11T14:06:53;21.65;;;20.45;;
33644;SDS011;19986;48.190;16.366;2022-08-11T14:09:22;22.55;;;21.20;;
33644;SDS011;19986;48.190;16.366;2022-08-11T14:11:56;22.73;;;20.95;;
33644;SDS011;19986;48.190;16.366;2022-08-11T14:14:46;21.83;;;20.63;;
33644;SDS011;19986;48.190;16.366;2022-08-11T14:17:16;21.95;;;20.85;;
33644;SDS011;19986;48.190;16.366;2022-08-11T14:19:44;22.85;;;21.67;;
33644;SDS011;19986;48.190;16.366;2022-08-11T14:22:15;21.83;;;20.52;;
33644;SDS011;19986;48.190;16.366;2022-08-11T14:24:42;22.30;;;21.10;;
33644;SDS011;19986;48.190;16.366;2022-08-11T14:27:14;21.77;;;20.58;;
33644;SDS011;19986;48.190;16.366;2022-08-11T14:29:42;22.92;;;21.40;;
33644;SDS011;19986;48.190;16.366;2022-08-11T14:32:10;21.45;;;20.15;;
33644;SDS011;19986;48.190;16.366;2022-08-11T14:34:42;22.92;;;21.55;;
33644;SDS011;19986;48.190;16.366;2022-08-11T14:37:09;21.83;;;20.50;;
33644;SDS011;19986;48.190;16.366;2022-08-11T14:39:47;21.40;;;20.15;;
33644;SDS011;19986;48.190;16.366;2022-08-11T14:42:20;21.98;;;20.55;;
33644;SDS011;19986;48.190;16.366;2022-08-11T14:45:08;22.52;;;21.00;;
33644;SDS011;19986;48.190;16.366;2022-08-11T14:48:01;21.92;;;20.40;;
33644;SDS011;19986;48.190;16.366;2022-08-11T14:50:30;21.08;;;19.70;;
33644;SDS011;19986;48.190;16.366;2022-08-11T14:53:02;21.55;;;20.38;;
33644;SDS011;19986;48.190;16.366;2022-08-11T14:55:34;22.67;;;21.10;;
33644;SDS011;19986;48.190;16.366;2022-08-11T14:58:23;21.73;;;20.25;;
33644;SDS011;19986;48.190;16.366;2022-08-11T15:00:53;21.00;;;19.80;;
33644;SDS011;19986;48.190;16.366;2022-08-11T15:03:21;22.30;;;20.85;;
33644;SDS011;19986;48.190;16.366;2022-08-11T15:05:50;23.05;;;21.42;;
33644;SDS011;19986;48.190;16.366;2022-08-11T15:08:17;21.90;;;20.75;;
33644;SDS011;19986;48.190;16.366;2022-08-11T15:10:46;22.70;;;21.40;;
33644;SDS011;19986;48.190;16.366;2022-08-11T15:13:16;23.70;;;22.38;;
33644;SDS011;19986;48.190;16.366;2022-08-11T15:15:43;23.00;;;21.70;;
33644;SDS011;19986;48.190;16.366;2022-08-11T15:18:29;21.10;;;19.58;;
33644;SDS011;19986;48.190;16.366;2022-08-11T15:20:57;22.42;;;20.92;;
33644;SDS011;19986;48.190;16.366;2022-08-11T15:23:41;21.75;;;20.55;;
33644;SDS011;19986;48.190;16.366;2022-08-11T15:29:22;21.42;;;20.17;;
33644;SDS011;19986;48.190;16.366;2022-08-11T15:32:11;21.85;;;20.63;;
33644;SDS011;19986;48.190;16.366;2022-08-11T15:34:48;23.20;;;21.80;;
33644;SDS011;19986;48.190;16.366;2022-08-11T15:37:40;23.83;;;22.38;;
33644;SDS011;19986;48.190;16.366;2022-08-11T15:40:12;19.83;;;18.58;;
33644;SDS011;19986;48.190;16.366;2022-08-11T15:46:34;24.15;;;22.77;;
33644;SDS011;19986;48.190;16.366;2022-08-11T15:49:06;22.73;;;21.30;;
33644;SDS011;19986;48.190;16.366;2022-08-11T15:51:43;23.25;;;21.67;;
33644;SDS011;19986;48.190;16.366;2022-08-11T15:54:14;21.70;;;20.50;;
33644;SDS011;19986;48.190;16.366;2022-08-11T15:56:47;22.60;;;21.08;;
33644;SDS011;19986;48.190;16.366;2022-08-11T15:59:16;23.10;;;21.67;;
33644;SDS011;19986;48.190;16.366;2022-08-11T16:02:05;23.92;;;22.38;;
33644;SDS011;19986;48.190;16.366;2022-08-11T16:04:36;22.85;;;21.10;;
33644;SDS011;19986;48.190;16.366;2022-08-11T16:07:12;23.83;;;22.50;;
33644;SDS011;19986;48.190;16.366;2022-08-11T16:09:41;24.13;;;22.65;;
33644;SDS011;19986;48.190;16.366;2022-08-11T16:12:12;21.98;;;20.88;;
33644;SDS011;19986;48.190;16.366;2022-08-11T16:14:42;22.45;;;21.10;;
33644;SDS011;19986;48.190;16.366;2022-08-11T16:17:30;23.80;;;22.40;;
33644;SDS011;19986;48.190;16.366;2022-08-11T16:20:05;22.35;;;20.88;;
33644;SDS011;19986;48.190;16.366;2022-08-11T16:22:33;22.33;;;21.23;;
33644;SDS011;19986;48.190;16.366;2022-08-11T16:25:07;22.95;;;21.63;;
33644;SDS011;19986;48.190;16.366;2022-08-11T16:27:37;23.85;;;22.33;;
33644;SDS011;19986;48.190;16.366;2022-08-11T16:30:07;21.73;;;20.17;;
33644;SDS011;19986;48.190;16.366;2022-08-11T16:32:33;23.15;;;21.70;;
33644;SDS011;19986;48.190;16.366;2022-08-11T16:35:04;24.15;;;22.67;;
33644;SDS011;19986;48.190;16.366;2022-08-11T16:37:52;22.52;;;21.05;;
33644;SDS011;19986;48.190;16.366;2022-08-11T16:40:39;23.60;;;22.25;;
33644;SDS011;19986;48.190;16.366;2022-08-11T16:43:08;23.70;;;22.42;;
33644;SDS011;19986;48.190;16.366;2022-08-11T16:45:57;23.00;;;21.65;;
33644;SDS011;19986;48.190;16.366;2022-08-11T16:48:42;23.50;;;22.20;;
33644;SDS011;19986;48.190;16.366;2022-08-11T16:51:12;23.20;;;21.67;;
33644;SDS011;19986;48.190;16.366;2022-08-11T16:53:39;23.52;;;22.25;;
33644;SDS011;19986;48.190;16.366;2022-08-11T16:56:08;21.60;;;20.50;;
33644;SDS011;19986;48.190;16.366;2022-08-11T16:58:41;22.05;;;20.95;;
33644;SDS011;19986;48.190;16.366;2022-08-11T17:01:29;23.73;;;22.15;;
33644;SDS011;19986;48.190;16.366;2022-08-11T17:04:19;22.45;;;21.25;;
33644;SDS011;19986;48.190;16.366;2022-08-11T17:07:11;23.13;;;21.70;;
33644;SDS011;19986;48.190;16.366;2022-08-11T17:09:57;22.15;;;21.05;;
33644;SDS011;19986;48.190;16.366;2022-08-11T17:12:45;23.25;;;21.80;;
33644;SDS011;19986;48.190;16.366;2022-08-11T17:15:37;23.17;;;21.88;;
33644;SDS011;19986;48.190;16.366;2022-08-11T17:18:53;22.52;;;21.23;;
33644;SDS011;19986;48.190;16.366;2022-08-11T17:21:40;24.00;;;22.80;;
33644;SDS011;19986;48.190;16.366;2022-08-11T17:24:29;24.45;;;23.08;;
33644;SDS011;19986;48.190;16.366;2022-08-11T17:27:01;23.60;;;22.10;;
33644;SDS011;19986;48.190;16.366;2022-08-11T17:29:36;22.50;;;21.27;;
33644;SDS011;19986;48.190;16.366;2022-08-11T17:32:14;23.40;;;21.67;;
33644;SDS011;19986;48.190;16.366;2022-08-11T17:35:08;22.23;;;20.83;;
33644;SDS011;19986;48.190;16.366;2022-08-11T17:38:16;23.05;;;21.75;;
33644;SDS011;19986;48.190;16.366;2022-08-11T17:40:50;22.95;;;21.73;;
33644;SDS011;19986;48.190;16.366;2022-08-11T17:43:37;22.48;;;21.25;;
33644;SDS011;19986;48.190;16.366;2022-08-11T17:46:23;23.48;;;22.27;;
33644;SDS011;19986;48.190;16.366;2022-08-11T17:49:10;25.35;;;23.75;;
33644;SDS011;19986;48.190;16.366;2022-08-11T17:51:37;23.77;;;22.55;;
33644;SDS011;19986;48.190;16.366;2022-08-11T17:54:24;24.20;;;22.80;;
33644;SDS011;19986;48.190;16.366;2022-08-11T17:57:09;23.52;;;22.23;;
33644;SDS011;19986;48.190;16.366;2022-08-11T17:59:56;24.23;;;22.90;;
33644;SDS011;19986;48.190;16.366;2022-08-11T18:02:33;24.00;;;22.70;;
33644;SDS011;19986;48.190;16.366;2022-08-11T18:05:28;24.05;;;22.45;;
33644;SDS011;19986;48.190;16.366;2022-08-11T18:07:56;23.90;;;22.50;;
33644;SDS011;19986;48.190;16.366;2022-08-11T18:10:44;25.02;;;23.60;;
33644;SDS011;19986;48.190;16.366;2022-08-11T18:13:32;23.70;;;22.45;;
33644;SDS011;19986;48.190;16.366;2022-08-11T18:16:19;24.35;;;22.77;;
33644;SDS011;19986;48.190;16.366;2022-08-11T18:19:05;23.30;;;22.05;;
33644;SDS011;19986;48.190;16.366;2022-08-11T18:21:50;23.30;;;21.90;;
33644;SDS011;19986;48.190;16.366;2022-08-11T18:24:40;23.65;;;22.15;;
33644;SDS011;19986;48.190;16.366;2022-08-11T18:27:31;23.95;;;22.65;;
33644;SDS011;19986;48.190;16.366;2022-08-11T18:30:17;23.95;;;22.63;;
33644;SDS011;19986;48.190;16.366;2022-08-11T18:33:02;23.17;;;21.80;;
33644;SDS011;19986;48.190;16.366;2022-08-11T18:35:50;24.45;;;23.05;;
33644;SDS011;19986;48.190;16.366;2022-08-11T18:38:38;23.80;;;22.25;;
33644;SDS011;19986;48.190;16.366;2022-08-11T18:41:24;25.08;;;23.65;;
33644;SDS011;19986;48.190;16.366;2022-08-11T18:44:14;24.90;;;23.50;;
33644;SDS011;19986;48.190;16.366;2022-08-11T18:47:01;26.38;;;24.83;;
33644;SDS011;19986;48.190;16.366;2022-08-11T18:49:51;24.60;;;22.90;;
33644;SDS011;19986;48.190;16.366;2022-08-11T18:52:36;23.70;;;22.20;;